Time;durP1;ratioP1;P1;durP2;ratioP2;P2;SDS_P1;SDS_P2;PMS_P1;PMS_P2;Temp;Humidity;BMP_temperature;BMP_pressure;BME280_temperature;BME280_humidity;BME280_pressure;Samples;Min_cycle;Max_cycle;Signal;HPM_P1;HPM_P2
2023/06/12 00:00:52;;;;;;;4.05;3.10;;;23.20;34.20;;;;;;4998097;28;20050;-50
2023/06/12 00:03:21;;;;;;;8.37;3.70;;;23.20;34.30;;;;;;5001321;28;20057;-48
2023/06/12 00:05:48;;;;;;;5.60;3.65;;;23.10;34.30;;;;;;4999259;28;20419;-49
2023/06/12 00:08:17;;;;;;;5.55;3.47;;;23.10;34.40;;;;;;4999422;28;20050;-48
2023/06/12 00:10:45;;;;;;;5.93;3.63;;;23.10;34.40;;;;;;5001105;28;20451;-51
2023/06/12 00:13:13;;;;;;;5.50;3.20;;;23.00;34.40;;;;;;4999280;28;20612;-50
2023/06/12 00:15:41;;;;;;;6.07;3.65;;;23.00;34.70;;;;;;4999918;28;20054;-45
2023/06/12 00:18:11;;;;;;;5.50;3.58;;;23.00;34.70;;;;;;5002099;28;20391;-43
2023/06/12 00:20:38;;;;;;;4.50;3.35;;;22.90;34.70;;;;;;4997410;28;20062;-48
2023/06/12 00:23:06;;;;;;;7.50;4.05;;;22.90;34.70;;;;;;4999076;28;20061;-45
2023/06/12 00:25:33;;;;;;;4.85;3.50;;;22.80;34.70;;;;;;5001205;28;20057;-49
2023/06/12 00:28:01;;;;;;;5.88;3.65;;;22.80;34.70;;;;;;5000106;28;20057;-50
2023/06/12 00:30:28;;;;;;;4.47;3.35;;;22.80;34.70;;;;;;5000928;28;20046;-50
2023/06/12 00:32:55;;;;;;;7.63;3.80;;;22.80;34.60;;;;;;4997590;28;20050;-50
2023/06/12 00:35:24;;;;;;;5.38;3.53;;;22.70;34.80;;;;;;4998484;28;20057;-47
2023/06/12 00:37:51;;;;;;;5.22;3.58;;;22.70;34.80;;;;;;4999633;28;20490;-46
2023/06/12 00:40:18;;;;;;;4.45;3.55;;;22.70;34.90;;;;;;4999517;28;20065;-44
2023/06/12 00:42:47;;;;;;;5.20;3.80;;;22.60;35.00;;;;;;4998308;28;20613;-44
2023/06/12 00:45:15;;;;;;;5.85;3.70;;;22.60;35.00;;;;;;4999790;28;20057;-50
2023/06/12 00:47:46;;;;;;;6.93;3.80;;;22.60;35.00;;;;;;4998847;28;20061;-48
2023/06/12 00:50:14;;;;;;;5.15;3.42;;;22.60;35.00;;;;;;4997698;28;20057;-46
2023/06/12 00:52:48;;;;;;;4.88;3.50;;;22.50;34.90;;;;;;4999801;28;20065;-49
2023/06/12 00:55:16;;;;;;;4.00;3.28;;;22.50;34.80;;;;;;4999438;28;20058;-48
2023/06/12 00:57:44;;;;;;;5.43;3.30;;;22.50;34.80;;;;;;4999675;28;20058;-47
2023/06/12 01:02:44;;;;;;;5.30;3.50;;;22.40;34.80;;;;;;5014783;28;20500;-55
2023/06/12 01:05:14;;;;;;;5.90;3.83;;;22.40;34.80;;;;;;5013617;28;20057;-56
2023/06/12 01:07:48;;;;;;;5.85;3.50;;;22.40;34.90;;;;;;5014967;28;20049;-56
2023/06/12 01:10:21;;;;;;;5.57;3.72;;;22.40;35.10;;;;;;5017606;28;20085;-54
2023/06/12 01:12:50;;;;;;;5.18;3.67;;;22.30;35.00;;;;;;5016890;28;20755;-55
2023/06/12 01:15:17;;;;;;;4.82;3.40;;;22.30;34.90;;;;;;5015070;28;20065;-56
2023/06/12 01:17:44;;;;;;;5.90;3.80;;;22.30;35.00;;;;;;5017586;28;20065;-56
2023/06/12 01:20:13;;;;;;;3.88;3.20;;;22.30;35.00;;;;;;5016349;28;20064;-55
2023/06/12 01:22:49;;;;;;;8.57;3.60;;;22.30;35.10;;;;;;5015694;28;20057;-55
2023/06/12 01:25:41;;;;;;;6.70;4.13;;;22.30;35.20;;;;;;5008614;28;20050;-54
2023/06/12 01:28:25;;;;;;;6.47;3.50;;;22.20;35.50;;;;;;5018668;28;20060;-56
2023/06/12 01:31:13;;;;;;;5.72;3.70;;;22.20;35.70;;;;;;5016712;28;20049;-56
2023/06/12 01:33:47;;;;;;;6.45;4.07;;;22.20;35.90;;;;;;5011802;28;20056;-56
2023/06/12 01:36:20;;;;;;;7.63;3.78;;;22.20;35.90;;;;;;5013954;28;20622;-55
2023/06/12 01:38:52;;;;;;;5.17;3.67;;;22.20;35.80;;;;;;5012771;28;20053;-56
2023/06/12 01:41:22;;;;;;;4.93;3.78;;;22.20;35.70;;;;;;5018556;28;20056;-56
2023/06/12 01:43:49;;;;;;;4.75;3.72;;;22.10;35.60;;;;;;5013884;28;20057;-55
2023/06/12 01:46:16;;;;;;;10.48;3.70;;;22.10;35.80;;;;;;5017298;28;20057;-53
2023/06/12 01:48:45;;;;;;;6.20;4.53;;;22.10;35.90;;;;;;5016054;28;20053;-55
2023/06/12 01:51:12;;;;;;;4.70;3.67;;;22.10;35.90;;;;;;5014331;28;20072;-55
2023/06/12 01:53:39;;;;;;;7.38;3.67;;;22.10;36.10;;;;;;5015902;28;20064;-55
2023/06/12 01:56:07;;;;;;;6.07;3.80;;;22.10;36.20;;;;;;5016518;28;20061;-56
2023/06/12 01:58:34;;;;;;;6.10;3.63;;;22.10;36.50;;;;;;5018049;28;20057;-55
2023/06/12 02:01:02;;;;;;;8.10;4.00;;;22.00;36.30;;;;;;5005116;28;20498;-55
2023/06/12 02:03:30;;;;;;;5.97;4.07;;;22.00;36.10;;;;;;4998971;28;20053;-55
2023/06/12 02:05:59;;;;;;;7.85;4.05;;;22.00;36.00;;;;;;4997157;28;20055;-55
2023/06/12 02:08:26;;;;;;;5.25;3.70;;;21.90;36.10;;;;;;4995602;28;20052;-54
2023/06/12 02:10:53;;;;;;;4.22;3.80;;;21.90;36.30;;;;;;4996539;28;20070;-56
2023/06/12 02:13:20;;;;;;;4.95;4.00;;;21.90;36.50;;;;;;4992504;28;20053;-55
2023/06/12 02:15:47;;;;;;;4.35;3.30;;;21.90;36.60;;;;;;4996447;28;20054;-56
2023/06/12 02:18:15;;;;;;;5.80;4.25;;;21.80;36.70;;;;;;4999689;28;20058;-55
2023/06/12 02:20:42;;;;;;;7.38;4.25;;;21.80;36.90;;;;;;4998160;28;20053;-54
2023/06/12 02:23:11;;;;;;;4.43;3.72;;;21.80;37.00;;;;;;4997139;28;20046;-55
2023/06/12 02:25:38;;;;;;;4.90;3.60;;;21.70;37.10;;;;;;4998543;28;20065;-55
2023/06/12 02:28:05;;;;;;;10.15;3.78;;;21.70;37.10;;;;;;5001209;28;20501;-54
2023/06/12 02:30:32;;;;;;;5.05;4.00;;;21.70;37.00;;;;;;5000477;28;20049;-56
2023/06/12 02:33:09;;;;;;;5.85;4.10;;;21.60;36.90;;;;;;4996313;28;20050;-56
2023/06/12 02:35:36;;;;;;;5.10;3.63;;;21.60;37.00;;;;;;5000075;28;20057;-55
2023/06/12 02:38:04;;;;;;;6.32;4.00;;;21.60;37.10;;;;;;4993633;28;20386;-56
2023/06/12 02:40:32;;;;;;;5.70;3.97;;;21.50;37.30;;;;;;4996591;28;20050;-56
2023/06/12 02:42:59;;;;;;;4.80;3.45;;;21.50;37.40;;;;;;4995571;28;20065;-56
2023/06/12 02:45:27;;;;;;;6.95;4.53;;;21.50;37.60;;;;;;4996124;28;20077;-55
2023/06/12 02:47:54;;;;;;;5.13;4.43;;;21.40;37.70;;;;;;4999352;28;20054;-56
2023/06/12 02:50:21;;;;;;;5.68;3.75;;;21.40;37.80;;;;;;4999307;28;20054;-56
2023/06/12 02:52:50;;;;;;;5.40;4.00;;;21.40;38.00;;;;;;4996802;28;20382;-56
2023/06/12 02:55:18;;;;;;;5.72;4.30;;;21.40;38.00;;;;;;4998593;28;20488;-55
2023/06/12 02:57:47;;;;;;;6.07;4.03;;;21.40;38.30;;;;;;4997946;28;20450;-54
2023/06/12 03:00:14;;;;;;;5.97;3.88;;;21.30;38.10;;;;;;4996795;28;20057;-55
2023/06/12 03:02:44;;;;;;;10.35;4.20;;;21.30;38.20;;;;;;4997756;28;20046;-55
2023/06/12 03:05:14;;;;;;;5.57;4.20;;;21.20;38.30;;;;;;4996411;28;20049;-56
2023/06/12 03:07:43;;;;;;;5.38;4.00;;;21.20;38.30;;;;;;4994853;28;20054;-55
2023/06/12 03:10:11;;;;;;;5.88;4.00;;;21.20;38.50;;;;;;5002718;28;20057;-55
2023/06/12 03:12:38;;;;;;;4.45;3.60;;;21.20;38.50;;;;;;5001142;28;20425;-55
2023/06/12 03:15:08;;;;;;;7.68;4.05;;;21.10;38.30;;;;;;5001530;28;20058;-55
2023/06/12 03:17:36;;;;;;;5.80;3.90;;;21.10;38.30;;;;;;5002368;28;20072;-55
2023/06/12 03:20:06;;;;;;;5.72;3.85;;;21.10;38.30;;;;;;5001941;28;20050;-56
2023/06/12 03:22:33;;;;;;;4.97;3.80;;;21.00;38.30;;;;;;4998424;28;20435;-54
2023/06/12 03:25:01;;;;;;;5.03;4.20;;;21.00;38.50;;;;;;5000943;28;20050;-53
2023/06/12 03:27:29;;;;;;;4.72;3.75;;;21.00;38.70;;;;;;4998072;28;20690;-54
2023/06/12 03:29:57;;;;;;;5.50;3.85;;;21.00;38.90;;;;;;4998742;28;20064;-55
2023/06/12 03:32:26;;;;;;;5.68;4.13;;;20.90;39.00;;;;;;5000186;28;20114;-55
2023/06/12 03:34:54;;;;;;;5.93;4.28;;;20.90;39.20;;;;;;5000065;28;20057;-54
2023/06/12 03:37:21;;;;;;;5.35;4.25;;;20.90;39.30;;;;;;5000766;28;20512;-54
2023/06/12 03:39:48;;;;;;;7.22;3.83;;;20.90;39.40;;;;;;5001491;28;20062;-55
2023/06/12 03:42:16;;;;;;;6.63;4.43;;;20.90;39.40;;;;;;5000552;28;20061;-53
2023/06/12 03:44:43;;;;;;;5.75;4.10;;;20.80;39.50;;;;;;5000660;28;20531;-54
2023/06/12 03:47:11;;;;;;;6.75;3.50;;;20.80;39.60;;;;;;5001087;28;20053;-54
2023/06/12 03:49:40;;;;;;;6.95;4.72;;;20.80;39.70;;;;;;4999895;28;20428;-53
2023/06/12 03:52:08;;;;;;;6.55;4.30;;;20.80;39.90;;;;;;4999299;28;20528;-54
2023/06/12 03:54:35;;;;;;;6.68;3.95;;;20.80;39.90;;;;;;5001055;28;20049;-51
2023/06/12 03:57:02;;;;;;;9.65;3.83;;;20.70;39.90;;;;;;5001553;28;20052;-51
2023/06/12 03:59:30;;;;;;;6.28;4.32;;;20.70;40.10;;;;;;5000750;28;20053;-54
2023/06/12 04:01:58;;;;;;;7.70;4.32;;;20.70;40.20;;;;;;4998435;28;20050;-51
2023/06/12 04:04:25;;;;;;;4.97;4.05;;;20.70;40.30;;;;;;5001341;28;20065;-52
2023/06/12 04:06:54;;;;;;;8.40;4.53;;;20.70;40.40;;;;;;5000074;28;20053;-55
2023/06/12 04:09:22;;;;;;;7.65;4.10;;;20.70;40.60;;;;;;4998254;28;20507;-54
2023/06/12 04:11:49;;;;;;;6.82;4.38;;;20.60;40.50;;;;;;4998990;28;20061;-52
2023/06/12 04:14:17;;;;;;;6.43;4.07;;;20.60;40.60;;;;;;4999920;28;20053;-52
2023/06/12 04:16:44;;;;;;;4.40;3.80;;;20.60;40.70;;;;;;4997671;28;20257;-51
2023/06/12 04:19:12;;;;;;;5.90;4.13;;;20.70;40.80;;;;;;4997367;28;20065;-54
2023/06/12 04:21:39;;;;;;;6.07;4.28;;;20.60;40.90;;;;;;4999942;28;20058;-54
2023/06/12 04:24:15;;;;;;;5.03;4.00;;;20.60;41.10;;;;;;5000173;28;20054;-54
2023/06/12 04:26:44;;;;;;;8.43;4.50;;;20.60;41.20;;;;;;4999235;28;20057;-52
2023/06/12 04:29:12;;;;;;;6.80;4.45;;;20.60;41.40;;;;;;5001030;28;20057;-55
2023/06/12 04:31:40;;;;;;;5.82;3.90;;;20.60;41.50;;;;;;4998080;28;20061;-53
2023/06/12 04:34:07;;;;;;;6.72;4.13;;;20.60;41.50;;;;;;5000228;28;20049;-54
2023/06/12 04:36:37;;;;;;;6.53;4.68;;;20.60;41.70;;;;;;4998621;28;20374;-51
2023/06/12 04:39:05;;;;;;;7.80;4.35;;;20.60;41.80;;;;;;5001090;28;20413;-50
2023/06/12 04:41:36;;;;;;;5.75;4.25;;;20.60;42.00;;;;;;4996486;28;20513;-52
2023/06/12 04:44:03;;;;;;;9.02;4.72;;;20.60;42.00;;;;;;4999614;28;20058;-50
2023/06/12 04:46:32;;;;;;;6.00;4.07;;;20.60;42.30;;;;;;4996167;28;20058;-52
2023/06/12 04:49:00;;;;;;;7.28;4.45;;;20.60;42.30;;;;;;4999228;28;20056;-48
2023/06/12 04:51:27;;;;;;;7.30;4.70;;;20.60;42.40;;;;;;4996031;28;20049;-51
2023/06/12 04:53:55;;;;;;;6.40;4.60;;;20.60;42.40;;;;;;4999352;28;20072;-53
2023/06/12 04:56:22;;;;;;;6.00;4.40;;;20.60;42.50;;;;;;4999527;28;20386;-53
2023/06/12 04:58:51;;;;;;;6.55;4.43;;;20.60;42.60;;;;;;4995221;28;20664;-54
2023/06/12 05:01:22;;;;;;;5.82;4.45;;;20.60;42.80;;;;;;4995291;28;20125;-53
2023/06/12 05:03:50;;;;;;;6.47;5.22;;;20.60;43.10;;;;;;5000149;28;20072;-54
2023/06/12 05:06:17;;;;;;;7.82;5.05;;;20.70;43.60;;;;;;5000026;28;20493;-51
2023/06/12 05:08:44;;;;;;;11.02;6.45;;;20.70;43.10;;;;;;4996767;28;20068;-50
2023/06/12 05:11:11;;;;;;;8.00;5.13;;;20.70;43.30;;;;;;5001692;28;20414;-52
2023/06/12 05:13:39;;;;;;;6.72;4.95;;;20.70;43.40;;;;;;5001747;28;20060;-48
2023/06/12 05:16:07;;;;;;;5.45;4.18;;;20.70;43.50;;;;;;5001923;28;20457;-50
2023/06/12 05:18:35;;;;;;;6.57;4.80;;;20.80;43.60;;;;;;5001451;28;20053;-49
2023/06/12 05:21:03;;;;;;;5.95;4.22;;;20.70;43.70;;;;;;4999761;28;20485;-55
2023/06/12 05:23:30;;;;;;;6.05;4.40;;;20.80;43.70;;;;;;5000890;28;20073;-52
2023/06/12 05:25:57;;;;;;;5.68;4.43;;;20.80;43.80;;;;;;5002030;28;20065;-52
2023/06/12 05:28:25;;;;;;;7.25;4.43;;;20.80;43.80;;;;;;5001849;28;20065;-54
2023/06/12 05:30:52;;;;;;;6.43;4.32;;;20.90;43.80;;;;;;4999045;28;20064;-52
2023/06/12 05:33:21;;;;;;;10.20;5.30;;;20.90;43.80;;;;;;4998908;28;20045;-54
2023/06/12 05:35:49;;;;;;;5.38;4.07;;;20.90;44.00;;;;;;5000822;28;20068;-52
2023/06/12 05:38:16;;;;;;;6.05;4.38;;;20.90;43.90;;;;;;4998374;28;20057;-54
2023/06/12 05:40:43;;;;;;;6.28;4.50;;;20.90;44.00;;;;;;5000611;28;20160;-54
2023/06/12 05:43:11;;;;;;;7.03;4.75;;;21.00;44.00;;;;;;5000916;28;20505;-52
2023/06/12 05:45:38;;;;;;;5.55;4.38;;;21.00;44.00;;;;;;5001539;28;20057;-54
2023/06/12 05:48:06;;;;;;;5.80;4.35;;;21.00;44.00;;;;;;5000487;28;20053;-54
2023/06/12 05:50:35;;;;;;;7.18;4.70;;;21.10;44.30;;;;;;5000051;28;20056;-56
2023/06/12 05:53:02;;;;;;;6.10;4.38;;;21.10;44.30;;;;;;4998690;28;20054;-55
2023/06/12 05:55:29;;;;;;;9.32;4.40;;;21.20;44.20;;;;;;4999719;28;20069;-55
2023/06/12 05:57:57;;;;;;;6.65;4.97;;;21.20;44.10;;;;;;5001589;28;20406;-57
2023/06/12 06:00:25;;;;;;;6.32;4.35;;;21.30;44.20;;;;;;5001042;28;20056;-54
2023/06/12 06:02:52;;;;;;;6.45;4.65;;;21.30;44.20;;;;;;4998895;28;20490;-55
2023/06/12 06:05:19;;;;;;;6.22;4.90;;;21.30;44.30;;;;;;5000437;28;20058;-56
2023/06/12 06:07:50;;;;;;;6.47;4.38;;;21.40;44.30;;;;;;4999732;28;20054;-56
2023/06/12 06:10:17;;;;;;;7.63;5.13;;;21.40;44.40;;;;;;4998218;28;20057;-57
2023/06/12 06:12:45;;;;;;;7.97;4.90;;;21.50;44.40;;;;;;5000175;28;20486;-56
2023/06/12 06:15:13;;;;;;;8.88;4.50;;;21.60;44.30;;;;;;5002779;28;20062;-57
2023/06/12 06:17:40;;;;;;;7.38;4.78;;;21.60;44.20;;;;;;4996188;28;20061;-57
2023/06/12 06:20:08;;;;;;;9.82;4.95;;;21.70;44.30;;;;;;5000925;28;20494;-56
2023/06/12 06:22:36;;;;;;;6.10;4.70;;;21.70;44.20;;;;;;4997718;28;20482;-56
2023/06/12 06:25:05;;;;;;;13.98;4.72;;;21.80;44.10;;;;;;5001088;28;20042;-55
2023/06/12 06:27:32;;;;;;;6.68;4.03;;;21.80;44.00;;;;;;4999917;28;20049;-56
2023/06/12 06:30:00;;;;;;;7.75;4.50;;;21.90;44.00;;;;;;5001216;28;20421;-56
2023/06/12 06:32:27;;;;;;;6.88;4.35;;;21.90;43.90;;;;;;4999855;28;20073;-54
2023/06/12 06:34:55;;;;;;;5.20;4.28;;;22.00;43.80;;;;;;4996693;28;20053;-58
2023/06/12 06:37:22;;;;;;;8.38;4.57;;;22.00;43.80;;;;;;4997298;28;20065;-56
2023/06/12 06:39:49;;;;;;;8.57;4.30;;;22.10;43.90;;;;;;4996890;28;20061;-57
2023/06/12 06:42:18;;;;;;;6.97;4.45;;;22.20;43.80;;;;;;5001257;28;20050;-56
2023/06/12 06:44:45;;;;;;;6.43;4.72;;;22.20;43.90;;;;;;5003889;28;20053;-49
2023/06/12 06:47:12;;;;;;;7.65;4.50;;;22.30;43.80;;;;;;5001492;28;20058;-56
2023/06/12 06:49:40;;;;;;;7.10;4.70;;;22.30;43.80;;;;;;5001768;28;20058;-53
2023/06/12 06:52:08;;;;;;;7.88;4.38;;;22.40;43.60;;;;;;5002939;28;20057;-55
2023/06/12 06:54:35;;;;;;;6.18;4.45;;;22.40;43.50;;;;;;5000970;28;20409;-55
2023/06/12 06:57:02;;;;;;;6.25;4.97;;;22.50;43.50;;;;;;5004821;28;20058;-56
2023/06/12 06:59:31;;;;;;;5.40;4.10;;;22.60;43.40;;;;;;5005091;28;20058;-55
2023/06/12 07:01:58;;;;;;;6.90;4.45;;;22.60;43.30;;;;;;5001518;28;20413;-54
2023/06/12 07:04:25;;;;;;;6.68;4.78;;;22.70;43.50;;;;;;5004120;28;20157;-56
2023/06/12 07:06:52;;;;;;;7.45;5.05;;;22.70;43.40;;;;;;5004665;28;20437;-55
2023/06/12 07:09:21;;;;;;;5.78;4.50;;;22.80;43.40;;;;;;5002506;28;21021;-55
2023/06/12 07:11:48;;;;;;;8.55;4.65;;;22.80;43.50;;;;;;5004691;28;20061;-57
2023/06/12 07:14:15;;;;;;;6.22;4.90;;;22.90;43.30;;;;;;5002796;28;20050;-56
2023/06/12 07:16:44;;;;;;;6.03;4.47;;;22.90;43.30;;;;;;5004109;28;20053;-55
2023/06/12 07:19:12;;;;;;;5.93;4.68;;;23.00;43.30;;;;;;5002509;28;20057;-54
2023/06/12 07:21:39;;;;;;;5.97;4.20;;;23.10;43.20;;;;;;5000970;28;20439;-56
2023/06/12 07:24:07;;;;;;;6.28;4.45;;;23.10;43.00;;;;;;5005074;28;20401;-56
2023/06/12 07:26:34;;;;;;;5.70;4.30;;;23.20;43.00;;;;;;5004431;28;20057;-55
2023/06/12 07:29:03;;;;;;;5.88;4.72;;;23.20;43.00;;;;;;5004214;28;20058;-55
2023/06/12 07:31:30;;;;;;;4.78;4.10;;;23.30;43.20;;;;;;5001854;28;20060;-53
2023/06/12 07:33:59;;;;;;;5.97;4.35;;;23.30;43.10;;;;;;5002396;28;20493;-51
2023/06/12 07:36:26;;;;;;;9.48;4.70;;;23.50;43.20;;;;;;5004981;28;20053;-50
2023/06/12 07:38:53;;;;;;;6.20;4.28;;;23.50;43.00;;;;;;5003963;28;20065;-51
2023/06/12 07:41:21;;;;;;;5.15;4.43;;;23.60;43.20;;;;;;5002428;28;20064;-65
2023/06/12 07:43:48;;;;;;;6.20;4.45;;;23.70;43.20;;;;;;5003464;28;20102;-53
2023/06/12 07:46:15;;;;;;;5.22;4.07;;;23.70;42.90;;;;;;5004420;28;20111;-58
2023/06/12 07:48:43;;;;;;;7.80;4.53;;;23.80;42.80;;;;;;4999073;28;20053;-54
2023/06/12 07:51:11;;;;;;;6.55;4.70;;;23.90;42.80;;;;;;4997835;28;20050;-59
2023/06/12 07:53:38;;;;;;;6.40;4.40;;;23.90;42.90;;;;;;4998938;28;20061;-62
2023/06/12 07:56:07;;;;;;;5.55;4.13;;;24.00;42.70;;;;;;5003435;28;20065;-56
2023/06/12 07:58:37;;;;;;;6.00;4.63;;;24.10;42.50;;;;;;5001080;28;20049;-56
2023/06/12 08:01:05;;;;;;;6.75;4.43;;;24.10;42.40;;;;;;5001579;28;20062;-55
2023/06/12 08:03:38;;;;;;;7.03;4.20;;;24.20;42.50;;;;;;5002269;28;20310;-57
2023/06/12 08:06:05;;;;;;;9.23;4.90;;;24.30;42.50;;;;;;5003695;28;20514;-56
2023/06/12 08:08:41;;;;;;;8.05;4.60;;;24.40;42.50;;;;;;5001199;28;20050;-55
2023/06/12 08:11:09;;;;;;;4.65;4.07;;;24.40;42.50;;;;;;5003309;28;20049;-57
2023/06/12 08:13:36;;;;;;;5.45;4.78;;;24.50;42.60;;;;;;5003362;28;20059;-63
2023/06/12 08:16:03;;;;;;;7.95;4.68;;;24.50;42.40;;;;;;5003484;28;20061;-61
2023/06/12 08:18:31;;;;;;;5.43;4.30;;;24.60;42.40;;;;;;5003126;28;20061;-56
2023/06/12 08:20:58;;;;;;;7.18;4.93;;;24.70;42.30;;;;;;5002154;28;20513;-57
2023/06/12 08:23:25;;;;;;;6.55;4.22;;;24.70;42.20;;;;;;5001895;28;20054;-57
2023/06/12 08:25:54;;;;;;;5.28;4.00;;;24.80;42.30;;;;;;5002671;28;20180;-57
2023/06/12 08:28:21;;;;;;;6.93;4.43;;;24.80;42.20;;;;;;5001580;28;20057;-57
2023/06/12 08:30:50;;;;;;;6.65;4.32;;;24.90;42.40;;;;;;5002387;28;20053;-56
2023/06/12 08:33:18;;;;;;;6.30;4.40;;;25.00;42.30;;;;;;5002823;28;20712;-57
2023/06/12 08:35:46;;;;;;;7.35;4.60;;;25.00;42.00;;;;;;5001948;28;20056;-57
2023/06/12 08:38:13;;;;;;;8.55;4.80;;;25.10;42.00;;;;;;5000964;28;20053;-57
2023/06/12 08:40:40;;;;;;;5.88;4.18;;;25.20;41.90;;;;;;5000056;28;20053;-56
2023/06/12 08:43:10;;;;;;;6.00;4.07;;;25.20;41.60;;;;;;5000799;28;20046;-58
2023/06/12 08:45:43;;;;;;;7.22;4.40;;;25.30;41.30;;;;;;5002560;28;20598;-57
2023/06/12 08:48:12;;;;;;;8.45;4.55;;;25.30;41.20;;;;;;5001507;28;20061;-56
2023/06/12 08:50:40;;;;;;;6.68;4.70;;;25.40;41.00;;;;;;5000885;28;20050;-66
2023/06/12 08:53:08;;;;;;;6.45;4.25;;;25.40;40.80;;;;;;4998545;28;20069;-64
2023/06/12 08:55:39;;;;;;;7.38;4.45;;;25.50;40.60;;;;;;5002369;28;20489;-60
2023/06/12 08:58:09;;;;;;;5.93;4.28;;;25.60;40.50;;;;;;5002336;28;20050;-58
2023/06/12 09:00:38;;;;;;;6.35;4.60;;;25.60;40.30;;;;;;5001225;28;20481;-63
2023/06/12 09:03:06;;;;;;;4.30;3.58;;;25.70;40.10;;;;;;5000202;28;20053;-61
2023/06/12 09:05:37;;;;;;;5.82;3.75;;;25.70;39.80;;;;;;5001650;28;20517;-61
2023/06/12 09:08:05;;;;;;;5.90;4.20;;;25.80;39.70;;;;;;5000524;28;20082;-59
2023/06/12 09:10:33;;;;;;;6.82;4.47;;;25.80;39.70;;;;;;5000646;28;20056;-62
2023/06/12 09:13:01;;;;;;;6.43;4.32;;;25.90;39.60;;;;;;5002810;28;20061;-59
2023/06/12 09:15:30;;;;;;;4.63;3.80;;;26.00;39.50;;;;;;4999271;28;20049;-64
2023/06/12 09:17:57;;;;;;;6.10;4.10;;;26.00;39.40;;;;;;5001472;28;20066;-57
2023/06/12 09:20:26;;;;;;;4.40;3.90;;;26.10;39.40;;;;;;4999892;28;20062;-58
2023/06/12 09:22:54;;;;;;;4.88;3.80;;;26.10;39.20;;;;;;4999479;28;20084;-57
2023/06/12 09:25:22;;;;;;;5.55;4.63;;;26.20;39.30;;;;;;5002040;28;20052;-57
2023/06/12 09:27:50;;;;;;;6.75;4.15;;;26.30;39.50;;;;;;4998082;28;20374;-55
2023/06/12 09:30:17;;;;;;;5.15;4.38;;;26.30;39.30;;;;;;4991897;28;20054;-59
2023/06/12 09:32:45;;;;;;;5.97;4.50;;;26.40;38.80;;;;;;4995597;28;20064;-55
2023/06/12 09:35:13;;;;;;;5.88;4.43;;;26.40;38.70;;;;;;4995171;28;20386;-56
2023/06/12 09:37:41;;;;;;;8.13;5.80;;;26.50;38.60;;;;;;4995974;28;20061;-57
2023/06/12 09:40:10;;;;;;;7.60;4.70;;;26.50;38.70;;;;;;4997405;28;20481;-56
2023/06/12 09:42:38;;;;;;;6.65;4.65;;;26.60;38.60;;;;;;4998036;28;20046;-56
2023/06/12 09:45:12;;;;;;;5.70;4.13;;;26.70;38.40;;;;;;4997158;28;20053;-56
2023/06/12 09:47:46;;;;;;;4.65;3.92;;;26.70;38.50;;;;;;4994885;28;20528;-55
2023/06/12 09:50:14;;;;;;;5.82;4.10;;;26.80;38.50;;;;;;4996876;28;20046;-56
2023/06/12 09:52:42;;;;;;;4.95;4.07;;;26.80;38.40;;;;;;4997076;28;20050;-52
2023/06/12 09:55:13;;;;;;;5.45;4.10;;;26.90;38.30;;;;;;4999465;28;20494;-56
2023/06/12 09:57:43;;;;;;;12.35;5.22;;;26.90;38.40;;;;;;4998482;28;20081;-57
2023/06/12 10:00:15;;;;;;;5.25;4.38;;;27.00;38.30;;;;;;4997835;28;20049;-54
2023/06/12 10:02:51;;;;;;;7.78;4.85;;;27.00;38.00;;;;;;4999028;28;20053;-56
2023/06/12 10:05:23;;;;;;;12.10;5.03;;;27.10;38.00;;;;;;4998343;28;20061;-56
2023/06/12 10:07:55;;;;;;;5.10;4.38;;;27.20;38.60;;;;;;4996628;28;20058;-56
2023/06/12 10:10:23;;;;;;;8.25;4.63;;;27.20;38.50;;;;;;4998592;28;20513;-56
2023/06/12 10:12:51;;;;;;;6.07;4.43;;;27.20;38.60;;;;;;4996917;28;20080;-57
2023/06/12 10:15:19;;;;;;;6.15;4.53;;;27.20;38.40;;;;;;5000161;28;20053;-55
2023/06/12 10:17:47;;;;;;;5.60;4.35;;;27.30;38.20;;;;;;4999302;28;20058;-53
2023/06/12 10:20:19;;;;;;;8.02;4.32;;;27.30;37.90;;;;;;5003122;28;20058;-53
2023/06/12 10:22:47;;;;;;;6.05;4.78;;;27.30;37.70;;;;;;4999033;28;20062;-54
2023/06/12 10:25:16;;;;;;;6.15;4.57;;;27.30;37.50;;;;;;5001497;28;20354;-57
2023/06/12 10:27:45;;;;;;;11.38;4.45;;;27.40;37.40;;;;;;5000992;28;20141;-58
2023/06/12 10:30:16;;;;;;;5.55;4.25;;;27.40;37.40;;;;;;5000734;28;20054;-64
2023/06/12 10:32:45;;;;;;;7.70;4.90;;;27.50;37.30;;;;;;5002120;28;20676;-65
2023/06/12 10:35:29;;;;;;;5.80;4.47;;;27.40;36.90;;;;;;4999980;28;20526;-54
2023/06/12 10:37:56;;;;;;;5.73;4.07;;;27.40;37.00;;;;;;5000544;28;20065;-55
2023/06/12 10:40:24;;;;;;;5.35;4.38;;;27.40;36.90;;;;;;5001449;28;20490;-55
2023/06/12 10:43:02;;;;;;;5.95;4.70;;;27.50;37.00;;;;;;5004170;28;20056;-55
2023/06/12 10:45:30;;;;;;;4.93;4.20;;;27.50;36.80;;;;;;4998489;28;20050;-57
2023/06/12 10:48:19;;;;;;;9.30;4.72;;;27.60;36.90;;;;;;5000619;28;20050;-62
2023/06/12 10:50:49;;;;;;;4.88;3.83;;;27.60;36.60;;;;;;5004201;28;20054;-62
2023/06/12 10:53:23;;;;;;;5.45;4.68;;;27.60;36.70;;;;;;5001105;28;20414;-59
2023/06/12 10:55:56;;;;;;;6.28;4.38;;;27.70;36.80;;;;;;5001375;28;20057;-53
2023/06/12 10:58:25;;;;;;;6.47;4.68;;;27.70;37.00;;;;;;5002113;28;20053;-57
2023/06/12 11:00:53;;;;;;;5.22;4.68;;;27.70;36.70;;;;;;5000559;28;20060;-61
2023/06/12 11:03:25;;;;;;;5.85;4.45;;;27.70;36.80;;;;;;5001030;28;20061;-56
2023/06/12 11:05:58;;;;;;;5.00;4.43;;;27.80;36.60;;;;;;5002285;28;20054;-57
2023/06/12 11:08:27;;;;;;;6.25;5.05;;;27.90;36.70;;;;;;4998951;28;20080;-55
2023/06/12 11:10:55;;;;;;;5.10;4.50;;;27.90;36.60;;;;;;5002962;28;20058;-64
2023/06/12 11:13:24;;;;;;;6.68;4.78;;;28.00;36.60;;;;;;5002242;28;20054;-56
2023/06/12 11:15:52;;;;;;;7.95;4.35;;;28.00;36.00;;;;;;5002973;28;20057;-56
2023/06/12 11:18:20;;;;;;;5.32;4.53;;;28.00;36.20;;;;;;5000874;28;20516;-58
2023/06/12 11:20:52;;;;;;;5.00;4.47;;;28.10;36.20;;;;;;5000511;28;20062;-57
2023/06/12 11:23:55;;;;;;;5.57;4.40;;;28.10;36.00;;;;;;4996665;28;20052;-57
2023/06/12 11:26:48;;;;;;;6.80;4.53;;;28.20;36.10;;;;;;4976810;28;20318;-57
2023/06/12 11:33:01;;;;;;;5.30;4.60;;;28.20;35.80;;;;;;4939468;28;20052;-64
2023/06/12 11:35:52;;;;;;;5.35;4.65;;;28.30;35.20;;;;;;4996137;28;20561;-58
2023/06/12 11:38:32;;;;;;;5.30;4.78;;;28.30;34.30;;;;;;4996216;28;20053;-58
2023/06/12 11:41:12;;;;;;;7.20;4.88;;;28.20;34.60;;;;;;5000552;28;20077;-63
2023/06/12 11:44:20;;;;;;;5.35;4.50;;;28.30;34.00;;;;;;4999552;28;20080;-56
2023/06/12 11:47:01;;;;;;;4.45;4.05;;;28.20;34.10;;;;;;4998356;28;20509;-59
2023/06/12 11:49:40;;;;;;;7.35;4.47;;;28.20;34.20;;;;;;4999266;28;20060;-60
2023/06/12 11:52:17;;;;;;;6.10;4.85;;;28.20;34.10;;;;;;4998924;28;20054;-58
2023/06/12 11:55:19;;;;;;;6.38;5.13;;;28.20;33.60;;;;;;4993949;28;20062;-60
2023/06/12 11:57:57;;;;;;;6.30;5.22;;;28.20;33.70;;;;;;4999547;28;20050;-58
2023/06/12 12:03:17;;;;;;;7.65;5.25;;;28.30;33.60;;;;;;4998611;28;20061;-63
2023/06/12 12:05:45;;;;;;;5.32;4.55;;;28.30;33.90;;;;;;4998645;28;20050;-58
2023/06/12 12:08:12;;;;;;;8.10;4.57;;;28.30;33.90;;;;;;4999923;28;20050;-58
2023/06/12 12:10:41;;;;;;;6.50;5.18;;;28.30;33.90;;;;;;4997963;28;20061;-59
2023/06/12 12:13:09;;;;;;;4.90;4.38;;;28.40;33.80;;;;;;4999994;28;20054;-59
2023/06/12 12:15:40;;;;;;;6.82;5.60;;;28.50;34.00;;;;;;5000270;28;20054;-58
2023/06/12 12:18:12;;;;;;;5.55;4.85;;;28.50;33.70;;;;;;4998346;28;20064;-58
2023/06/12 12:20:39;;;;;;;6.63;4.78;;;28.50;33.80;;;;;;5000728;28;20425;-60
2023/06/12 12:23:10;;;;;;;6.30;5.15;;;28.50;33.80;;;;;;4993509;28;20054;-59
2023/06/12 12:25:38;;;;;;;6.50;5.22;;;28.60;32.90;;;;;;5001245;28;20058;-60
2023/06/12 12:28:07;;;;;;;7.35;5.10;;;28.60;33.20;;;;;;4999795;28;20413;-60
2023/06/12 12:30:35;;;;;;;6.38;4.50;;;28.60;32.70;;;;;;5000109;28;20058;-58
2023/06/12 12:33:02;;;;;;;5.35;4.28;;;28.70;32.70;;;;;;4999741;28;20084;-60
2023/06/12 12:35:29;;;;;;;5.63;4.70;;;28.70;32.90;;;;;;4999660;28;20509;-59
2023/06/12 12:37:58;;;;;;;4.60;4.20;;;28.70;33.00;;;;;;4998712;28;20397;-59
2023/06/12 12:40:28;;;;;;;5.63;4.63;;;28.70;33.00;;;;;;5000106;28;20053;-62
2023/06/12 12:42:55;;;;;;;7.00;4.97;;;28.70;32.90;;;;;;5001162;28;20061;-59
2023/06/12 12:45:26;;;;;;;6.65;5.10;;;28.80;32.90;;;;;;4998590;28;20068;-62
2023/06/12 12:47:53;;;;;;;10.23;5.00;;;28.70;32.50;;;;;;4998497;28;20065;-57
2023/06/12 12:50:21;;;;;;;7.28;5.10;;;28.80;32.50;;;;;;4999477;28;20054;-69
2023/06/12 12:52:49;;;;;;;6.18;5.30;;;28.80;32.30;;;;;;4995827;28;20160;-58
2023/06/12 12:55:16;;;;;;;9.75;5.47;;;28.90;31.40;;;;;;4995374;28;20053;-65
2023/06/12 12:57:43;;;;;;;10.20;5.35;;;28.90;31.60;;;;;;4999477;28;20084;-66
2023/06/12 13:00:12;;;;;;;7.75;5.28;;;28.90;31.40;;;;;;4998990;28;20073;-62
2023/06/12 13:02:42;;;;;;;7.15;5.35;;;29.00;30.50;;;;;;4998656;28;20054;-65
2023/06/12 13:05:11;;;;;;;7.45;5.22;;;29.00;31.10;;;;;;4997092;28;20058;-66